Time;durP1;ratioP1;P1;durP2;ratioP2;P2;SDS_P1;SDS_P2;PMS_P1;PMS_P2;Temp;Humidity;BMP_temperature;BMP_pressure;BME280_temperature;BME280_humidity;BME280_pressure;Samples;Min_cycle;Max_cycle;Signal;HPM_P1;HPM_P2
2022/02/11 00:01:02;;;;;;;10.37;9.47;;;3.10;99.90;;;;;;5014573;28;20222;-68
2022/02/11 00:08:53;;;;;;;10.83;9.90;;;3.20;99.90;;;;;;5014552;28;20663;-66
2022/02/11 00:11:25;;;;;;;10.67;9.57;;;3.20;99.90;;;;;;5014200;28;20338;-66
2022/02/11 00:13:50;;;;;;;10.30;9.50;;;3.30;99.90;;;;;;5013053;28;20176;-69
2022/02/11 00:16:17;;;;;;;10.47;8.87;;;3.30;99.90;;;;;;5014079;28;20189;-67
2022/02/11 00:18:42;;;;;;;10.30;9.50;;;3.30;99.90;;;;;;5012395;28;20304;-67
2022/02/11 00:21:08;;;;;;;10.87;9.90;;;3.30;99.90;;;;;;5012582;28;20243;-68
2022/02/11 00:23:37;;;;;;;11.00;10.00;;;3.30;99.90;;;;;;5012436;28;20231;-66
2022/02/11 00:26:03;;;;;;;11.40;10.40;;;3.20;99.90;;;;;;5011458;28;20263;-67
2022/02/11 00:33:44;;;;;;;10.53;9.80;;;3.20;99.90;;;;;;5013397;28;20237;-67
2022/02/11 00:36:12;;;;;;;10.47;9.50;;;3.20;99.90;;;;;;5014020;28;20179;-67
2022/02/11 01:02:54;;;;;;;10.53;9.50;;;2.70;99.90;;;;;;5013120;28;20552;-67
2022/02/11 01:05:20;;;;;;;11.07;10.07;;;2.70;99.90;;;;;;5013488;28;20196;-67
2022/02/11 01:07:45;;;;;;;11.90;10.70;;;2.60;99.90;;;;;;5013181;28;20230;-67
2022/02/11 01:10:11;;;;;;;11.77;10.70;;;2.60;99.90;;;;;;5011658;28;20172;-67
2022/02/11 01:12:39;;;;;;;13.00;11.30;;;2.60;99.90;;;;;;5012778;28;20176;-66
2022/02/11 01:15:06;;;;;;;12.30;11.23;;;2.50;99.90;;;;;;5011729;28;20190;-67
2022/02/11 01:17:37;;;;;;;11.77;10.70;;;2.50;99.90;;;;;;5012949;28;20165;-69
2022/02/11 01:22:46;;;;;;;13.53;12.20;;;2.50;99.90;;;;;;5012968;28;20196;-68
2022/02/11 01:39:15;;;;;;;13.20;12.07;;;2.60;99.90;;;;;;5012917;28;20228;-67
2022/02/11 01:49:54;;;;;;;17.30;14.13;;;2.50;99.90;;;;;;5012633;28;20174;-67
2022/02/11 02:13:56;;;;;;;16.47;14.77;;;2.60;99.90;;;;;;5011966;28;20176;-68
2022/02/11 02:59:05;;;;;;;21.13;16.57;;;2.30;99.90;;;;;;5010826;28;20555;-68
2022/02/11 03:01:48;;;;;;;27.73;16.97;;;2.30;99.90;;;;;;5010457;28;20246;-68
2022/02/11 03:31:40;;;;;;;16.30;14.67;;;2.40;99.90;;;;;;5011317;28;20250;-68
2022/02/11 04:52:32;;;;;;;19.80;15.47;;;2.90;99.90;;;;;;5014412;28;20271;-70
2022/02/11 04:59:58;;;;;;;19.63;14.13;;;3.10;99.90;;;;;;5013212;28;20226;-68
2022/02/11 05:02:30;;;;;;;18.90;15.00;;;3.10;99.90;;;;;;5013076;28;20208;-67
2022/02/11 05:04:56;;;;;;;17.30;14.90;;;3.20;99.90;;;;;;5011469;28;20617;-68
2022/02/11 05:07:22;;;;;;;15.00;13.40;;;3.20;99.90;;;;;;5012124;28;20223;-68
2022/02/11 05:09:47;;;;;;;16.63;14.97;;;3.20;99.90;;;;;;5013092;28;20180;-68
2022/02/11 05:12:13;;;;;;;15.70;14.10;;;3.20;99.90;;;;;;5012807;28;20278;-67
2022/02/11 05:14:38;;;;;;;16.47;14.50;;;3.20;99.90;;;;;;5013054;28;20184;-68
2022/02/11 05:17:04;;;;;;;19.07;13.47;;;3.30;99.90;;;;;;5013184;28;20184;-67
2022/02/11 05:19:30;;;;;;;17.53;13.33;;;3.30;99.90;;;;;;5011653;28;20556;-68
2022/02/11 05:21:55;;;;;;;21.17;13.90;;;3.40;99.90;;;;;;5012560;28;20249;-69
2022/02/11 05:24:21;;;;;;;15.97;14.00;;;3.40;99.90;;;;;;5011163;28;20238;-67
2022/02/11 05:26:47;;;;;;;20.77;12.63;;;3.40;99.90;;;;;;5011597;28;20172;-68
2022/02/11 05:29:13;;;;;;;18.03;13.00;;;3.40;99.90;;;;;;5012913;28;20197;-66
2022/02/11 05:31:38;;;;;;;19.10;13.60;;;3.40;99.90;;;;;;5012956;28;20249;-67
2022/02/11 05:34:04;;;;;;;24.83;13.30;;;3.40;99.90;;;;;;5012582;28;20180;-68
2022/02/11 05:36:30;;;;;;;19.03;13.90;;;3.40;99.90;;;;;;5012741;28;20168;-67
2022/02/11 05:38:55;;;;;;;14.63;13.33;;;3.40;99.90;;;;;;5011295;28;20646;-68
2022/02/11 05:41:21;;;;;;;14.33;11.73;;;3.30;99.90;;;;;;5012656;28;20227;-67
2022/02/11 05:43:47;;;;;;;17.30;12.70;;;3.30;99.90;;;;;;5011110;28;20204;-68
2022/02/11 05:46:13;;;;;;;12.77;11.67;;;3.30;99.90;;;;;;5012552;28;20176;-68
2022/02/11 05:48:39;;;;;;;12.57;11.40;;;3.40;99.90;;;;;;5011229;28;20182;-67
2022/02/11 05:51:09;;;;;;;13.30;11.67;;;3.40;99.90;;;;;;5011144;28;20207;-68
2022/02/11 05:53:35;;;;;;;16.77;11.97;;;3.50;99.90;;;;;;5011862;28;20188;-68
2022/02/11 05:56:01;;;;;;;15.00;12.77;;;3.60;99.90;;;;;;5012214;28;20602;-68
2022/02/11 05:58:27;;;;;;;14.70;10.90;;;3.70;99.90;;;;;;5011199;28;20188;-67
2022/02/11 06:00:53;;;;;;;16.00;10.63;;;3.70;99.90;;;;;;5012043;28;20246;-68
2022/02/11 06:03:19;;;;;;;11.43;10.33;;;3.70;99.90;;;;;;5012051;28;20212;-68
2022/02/11 06:05:44;;;;;;;12.00;10.80;;;3.70;99.90;;;;;;5010945;28;20184;-68
2022/02/11 06:08:11;;;;;;;11.73;10.63;;;3.70;99.90;;;;;;5012149;28;20184;-68
2022/02/11 06:10:37;;;;;;;16.03;11.33;;;3.80;99.90;;;;;;5009741;28;20574;-68
2022/02/11 06:13:03;;;;;;;13.33;11.57;;;3.80;99.90;;;;;;5012355;28;20176;-68
2022/02/11 06:15:28;;;;;;;14.73;11.03;;;3.80;99.90;;;;;;5009501;28;20661;-67
2022/02/11 06:17:54;;;;;;;12.23;10.73;;;3.80;99.90;;;;;;5012175;28;20658;-68
2022/02/11 06:20:27;;;;;;;12.87;11.43;;;3.80;99.90;;;;;;5011697;28;20273;-68
2022/02/11 06:22:56;;;;;;;12.93;10.33;;;3.80;99.90;;;;;;5010414;28;20215;-67
2022/02/11 06:25:22;;;;;;;15.23;11.73;;;3.80;99.90;;;;;;5011897;28;20207;-67
2022/02/11 06:27:48;;;;;;;12.60;11.13;;;3.80;99.90;;;;;;5010269;28;20176;-68
2022/02/11 06:30:14;;;;;;;12.50;11.03;;;3.90;99.90;;;;;;5012006;28;20184;-67
2022/02/11 06:32:40;;;;;;;10.23;9.40;;;3.90;99.90;;;;;;5010383;28;20318;-67
2022/02/11 06:35:08;;;;;;;14.10;11.60;;;3.80;99.90;;;;;;5010606;28;20238;-67
2022/02/11 06:37:34;;;;;;;11.80;10.67;;;3.80;99.90;;;;;;5010330;28;20638;-68
2022/02/11 06:39:59;;;;;;;12.90;11.07;;;3.80;99.90;;;;;;5011306;28;20186;-68
2022/02/11 06:42:25;;;;;;;15.70;10.90;;;3.90;99.90;;;;;;5011184;28;20665;-67
2022/02/11 06:44:51;;;;;;;22.37;13.10;;;3.90;99.90;;;;;;5011769;28;20203;-67
2022/02/11 06:47:17;;;;;;;13.60;11.00;;;3.90;99.90;;;;;;5010290;28;20179;-68
2022/02/11 06:49:43;;;;;;;10.47;9.07;;;4.00;99.90;;;;;;5011229;28;20172;-67
2022/02/11 06:52:09;;;;;;;14.03;10.80;;;4.00;99.90;;;;;;5009198;28;20204;-67
2022/02/11 06:54:36;;;;;;;13.73;9.50;;;4.00;99.90;;;;;;5011752;28;20180;-67
2022/02/11 06:57:01;;;;;;;18.93;11.13;;;4.00;99.90;;;;;;5011431;28;20549;-68
2022/02/11 06:59:27;;;;;;;13.53;10.10;;;4.10;99.90;;;;;;5011749;28;20184;-67
2022/02/11 07:01:53;;;;;;;11.70;10.50;;;4.10;99.90;;;;;;5009532;28;20223;-68
2022/02/11 07:04:18;;;;;;;14.17;10.23;;;4.10;99.90;;;;;;5011283;28;20220;-67
2022/02/11 07:06:44;;;;;;;12.67;9.10;;;4.10;99.90;;;;;;5011419;28;20223;-68
2022/02/11 07:09:09;;;;;;;10.93;9.13;;;4.10;99.90;;;;;;5012176;28;20649;-70
2022/02/11 07:11:35;;;;;;;9.37;8.73;;;4.20;99.90;;;;;;5010739;28;20211;-67
2022/02/11 07:14:01;;;;;;;10.33;9.27;;;4.20;99.90;;;;;;5008411;28;20180;-68
2022/02/11 07:16:26;;;;;;;10.57;9.33;;;4.30;99.90;;;;;;5010928;28;20180;-67
2022/02/11 07:18:52;;;;;;;9.83;8.87;;;4.50;99.90;;;;;;5009689;28;20183;-68
2022/02/11 07:21:19;;;;;;;11.10;10.07;;;4.60;99.90;;;;;;5009960;28;20215;-68
2022/02/11 07:23:45;;;;;;;10.23;9.13;;;4.60;99.90;;;;;;5010249;28;20203;-68
2022/02/11 07:26:11;;;;;;;9.10;8.20;;;4.60;99.90;;;;;;5009115;28;20235;-68
2022/02/11 07:28:37;;;;;;;9.53;8.53;;;4.60;99.90;;;;;;5012275;28;20180;-68
2022/02/11 07:31:03;;;;;;;8.93;8.03;;;4.60;99.90;;;;;;5013400;28;20204;-68
2022/02/11 07:33:29;;;;;;;8.97;8.27;;;4.60;99.90;;;;;;5013569;28;20176;-68
2022/02/11 07:35:55;;;;;;;9.63;7.60;;;4.60;99.90;;;;;;5014770;28;20219;-69
2022/02/11 07:38:20;;;;;;;13.50;8.30;;;4.60;99.90;;;;;;5013569;28;20204;-68
2022/02/11 07:40:46;;;;;;;9.73;8.73;;;4.60;99.90;;;;;;5013321;28;20226;-69
2022/02/11 07:43:11;;;;;;;9.60;8.77;;;4.60;99.90;;;;;;5013441;28;20617;-68
2022/02/11 07:45:37;;;;;;;8.40;7.83;;;4.50;99.90;;;;;;5014674;28;20180;-68
2022/02/11 07:48:03;;;;;;;9.40;8.50;;;4.60;99.90;;;;;;5014496;28;20187;-68
2022/02/11 07:50:30;;;;;;;14.80;9.40;;;4.50;99.90;;;;;;5014515;28;20565;-67
2022/02/11 07:52:56;;;;;;;17.37;9.17;;;4.60;99.90;;;;;;5014184;28;20184;-68
2022/02/11 07:55:22;;;;;;;9.57;8.63;;;4.70;99.90;;;;;;5012918;28;20594;-68
2022/02/11 07:57:48;;;;;;;18.37;8.93;;;4.80;99.90;;;;;;5013795;28;20172;-68
2022/02/11 08:00:14;;;;;;;9.53;8.17;;;4.80;99.90;;;;;;5014125;28;20173;-67
2022/02/11 08:02:40;;;;;;;12.43;9.20;;;4.70;99.90;;;;;;5012951;28;20183;-68
2022/02/11 08:05:08;;;;;;;20.33;8.80;;;4.70;99.90;;;;;;5013478;28;20771;-67
2022/02/11 08:07:33;;;;;;;9.80;8.90;;;4.90;99.90;;;;;;5014334;28;20172;-67
2022/02/11 08:09:59;;;;;;;10.87;8.33;;;5.00;99.90;;;;;;5012315;28;20177;-67
2022/02/11 08:12:25;;;;;;;9.73;8.13;;;5.00;99.90;;;;;;5013751;28;20688;-68
2022/02/11 08:14:50;;;;;;;9.43;8.43;;;4.90;99.90;;;;;;5014365;28;20173;-67
2022/02/11 08:17:17;;;;;;;9.80;9.00;;;4.70;99.90;;;;;;5013336;28;20180;-67
2022/02/11 08:19:42;;;;;;;9.93;9.33;;;4.70;99.90;;;;;;5014443;28;20593;-68
2022/02/11 08:22:08;;;;;;;7.83;7.30;;;4.90;99.90;;;;;;5013812;28;20204;-68
2022/02/11 08:24:34;;;;;;;8.77;7.93;;;5.20;99.90;;;;;;5012694;28;20208;-68
2022/02/11 08:26:59;;;;;;;11.47;7.87;;;5.60;99.90;;;;;;5014187;28;20175;-68
2022/02/11 08:29:26;;;;;;;10.10;8.10;;;5.80;99.90;;;;;;5012982;28;20181;-69
2022/02/11 08:31:55;;;;;;;15.50;8.00;;;6.00;99.90;;;;;;5013986;28;20202;-68
2022/02/11 08:34:25;;;;;;;10.83;9.17;;;6.10;99.90;;;;;;5013925;28;20181;-67
2022/02/11 08:36:50;;;;;;;10.80;7.83;;;6.20;99.90;;;;;;5013838;28;20291;-67
2022/02/11 08:39:17;;;;;;;9.23;8.33;;;6.30;99.90;;;;;;5013270;28;20275;-67
2022/02/11 08:41:43;;;;;;;9.27;8.40;;;6.40;99.90;;;;;;5012656;28;20200;-68
2022/02/11 08:44:09;;;;;;;8.77;8.07;;;6.50;99.90;;;;;;5013303;28;20319;-68
2022/02/11 08:46:34;;;;;;;14.20;9.07;;;6.40;99.90;;;;;;5012261;28;20211;-67
2022/02/11 08:49:00;;;;;;;10.10;9.10;;;6.40;99.90;;;;;;5013400;28;20207;-69
2022/02/11 08:51:27;;;;;;;11.80;8.97;;;6.50;99.90;;;;;;5013702;28;20210;-69
2022/02/11 08:53:53;;;;;;;14.07;7.63;;;6.60;99.90;;;;;;5013065;28;20176;-68
2022/02/11 08:56:19;;;;;;;15.80;8.23;;;6.80;99.90;;;;;;5013273;28;20176;-69
2022/02/11 08:58:44;;;;;;;10.17;7.60;;;7.00;99.90;;;;;;5012460;28;20238;-69
2022/02/11 09:01:10;;;;;;;8.70;7.87;;;6.80;99.90;;;;;;5013202;28;20295;-69
2022/02/11 09:03:36;;;;;;;8.30;7.57;;;6.50;99.90;;;;;;5013541;28;20578;-69
2022/02/11 09:06:04;;;;;;;8.37;7.57;;;6.20;99.90;;;;;;5013828;28;20166;-68
2022/02/11 09:08:33;;;;;;;8.03;7.00;;;6.00;99.90;;;;;;5013390;28;20261;-68
2022/02/11 09:11:02;;;;;;;8.23;7.43;;;5.80;99.90;;;;;;5012630;28;20186;-69
2022/02/11 09:13:28;;;;;;;7.23;6.73;;;5.70;99.90;;;;;;5043147;28;20179;-68
2022/02/11 09:15:54;;;;;;;6.83;6.50;;;5.70;99.90;;;;;;5013417;28;20168;-68
2022/02/11 09:18:20;;;;;;;7.73;7.23;;;5.70;99.90;;;;;;5013202;28;20281;-68
2022/02/11 09:20:46;;;;;;;11.63;8.50;;;5.70;99.90;;;;;;5012015;28;20219;-68
2022/02/11 09:23:12;;;;;;;7.27;6.67;;;5.70;99.90;;;;;;5012482;28;20184;-68
2022/02/11 09:25:37;;;;;;;12.10;7.87;;;6.00;99.90;;;;;;5012818;28;20756;-68
2022/02/11 09:28:03;;;;;;;15.27;8.43;;;6.20;99.90;;;;;;5011901;28;20658;-69
2022/02/11 09:30:29;;;;;;;12.93;8.77;;;6.40;99.90;;;;;;5012723;28;20327;-68
2022/02/11 09:32:57;;;;;;;16.20;8.37;;;6.80;99.90;;;;;;5011372;28;20667;-68
2022/02/11 09:35:23;;;;;;;8.30;7.60;;;7.00;99.90;;;;;;5012717;28;20222;-68
2022/02/11 09:37:50;;;;;;;8.60;6.83;;;7.10;99.90;;;;;;5012863;28;20199;-69
2022/02/11 09:40:18;;;;;;;9.70;7.73;;;7.00;99.90;;;;;;5010058;28;20172;-69
2022/02/11 09:42:44;;;;;;;9.77;7.60;;;6.90;99.90;;;;;;5011731;28;20176;-66
2022/02/11 09:45:13;;;;;;;8.93;7.27;;;6.90;99.90;;;;;;5011011;28;20270;-68
2022/02/11 09:47:39;;;;;;;12.00;7.50;;;6.90;99.90;;;;;;5012832;28;20196;-68
2022/02/11 09:50:06;;;;;;;7.90;5.97;;;7.10;99.90;;;;;;5011266;28;20229;-68
2022/02/11 09:52:38;;;;;;;8.23;7.07;;;7.50;99.90;;;;;;5010121;28;20226;-69
2022/02/11 09:57:49;;;;;;;8.23;6.27;;;7.40;99.90;;;;;;5012657;28;20250;-67
2022/02/11 10:00:15;;;;;;;8.70;7.80;;;7.50;99.90;;;;;;5011203;28;20649;-67
2022/02/11 10:02:49;;;;;;;7.33;6.50;;;7.60;99.90;;;;;;5012761;28;20187;-67
2022/02/11 10:05:22;;;;;;;7.37;6.17;;;7.70;99.90;;;;;;5012040;28;20222;-68
2022/02/11 10:07:48;;;;;;;6.47;6.00;;;7.60;99.90;;;;;;5012379;28;20171;-67
2022/02/11 10:10:17;;;;;;;7.20;6.53;;;7.30;99.90;;;;;;5012012;28;20646;-67
2022/02/11 10:12:42;;;;;;;9.90;6.80;;;7.30;99.90;;;;;;5011963;28;20539;-67
2022/02/11 10:15:21;;;;;;;7.40;6.63;;;7.20;99.90;;;;;;5012045;28;20182;-67
2022/02/11 10:17:47;;;;;;;8.10;6.37;;;7.20;99.90;;;;;;5011946;28;20287;-67
2022/02/11 10:20:13;;;;;;;7.83;7.17;;;7.40;99.90;;;;;;5011478;28;20550;-67
2022/02/11 10:22:38;;;;;;;15.47;8.03;;;7.60;99.90;;;;;;5011748;28;20604;-67
2022/02/11 10:25:04;;;;;;;8.37;6.33;;;7.50;99.90;;;;;;5010399;28;20219;-68
2022/02/11 10:27:36;;;;;;;11.83;6.70;;;7.40;99.90;;;;;;5010364;28;20179;-67
2022/02/11 10:30:10;;;;;;;10.70;7.30;;;7.80;99.90;;;;;;5010693;28;20172;-68
2022/02/11 10:32:52;;;;;;;9.47;6.70;;;7.90;99.90;;;;;;5011553;28;20183;-68
2022/02/11 10:35:24;;;;;;;9.40;6.53;;;8.00;99.90;;;;;;5012089;28;20204;-68
2022/02/11 10:38:11;;;;;;;12.57;7.47;;;8.20;99.90;;;;;;5010466;28;20247;-67
2022/02/11 10:40:39;;;;;;;13.37;6.40;;;7.90;99.90;;;;;;5011776;28;20684;-68
2022/02/11 10:43:20;;;;;;;8.47;6.33;;;7.50;99.90;;;;;;5011197;28;20230;-67
2022/02/11 10:45:46;;;;;;;9.40;7.40;;;7.40;99.90;;;;;;5011888;28;20179;-67
2022/02/11 10:48:14;;;;;;;6.40;6.10;;;7.30;99.90;;;;;;5010317;28;20176;-67
2022/02/11 10:50:45;;;;;;;8.87;6.60;;;7.40;99.90;;;;;;5011611;28;20192;-67
2022/02/11 10:53:19;;;;;;;7.70;6.97;;;7.70;99.90;;;;;;5010095;28;20176;-67
2022/02/11 10:55:52;;;;;;;7.10;6.30;;;8.00;99.90;;;;;;5011888;28;20182;-67
2022/02/11 10:58:19;;;;;;;7.80;6.10;;;8.50;99.90;;;;;;5011076;28;20172;-67
2022/02/11 11:00:45;;;;;;;10.17;6.23;;;8.90;99.90;;;;;;5011525;28;20670;-67
2022/02/11 11:03:11;;;;;;;6.67;6.00;;;9.10;99.90;;;;;;5013754;28;20176;-67
2022/02/11 11:05:42;;;;;;;7.43;5.80;;;9.10;99.90;;;;;;5015606;28;20200;-67
2022/02/11 11:08:13;;;;;;;9.07;6.23;;;9.10;99.90;;;;;;5015436;28;20171;-67
2022/02/11 11:10:45;;;;;;;16.30;6.30;;;8.60;99.90;;;;;;5014909;28;20196;-67
2022/02/11 11:13:15;;;;;;;8.90;6.30;;;8.70;99.90;;;;;;5014282;28;20641;-67
2022/02/11 11:15:46;;;;;;;10.87;7.17;;;8.50;99.90;;;;;;5015608;28;20196;-67
2022/02/11 11:18:12;;;;;;;9.60;7.10;;;8.10;99.90;;;;;;5006123;28;20180;-67
2022/02/11 11:20:39;;;;;;;13.33;8.00;;;7.90;99.90;;;;;;4994916;28;20316;-67
2022/02/11 11:23:29;;;;;;;7.47;6.97;;;7.60;99.90;;;;;;5003995;28;20184;-67
2022/02/11 11:25:55;;;;;;;9.17;6.60;;;7.50;99.90;;;;;;5012957;28;20180;-67
2022/02/11 11:28:43;;;;;;;9.07;7.70;;;7.40;99.90;;;;;;5015202;28;20187;-67
2022/02/11 11:31:23;;;;;;;13.30;7.23;;;7.40;99.90;;;;;;5014900;28;20246;-68
2022/02/11 11:33:49;;;;;;;9.63;7.17;;;7.60;99.90;;;;;;5014719;28;20711;-67
2022/02/11 11:36:17;;;;;;;10.30;7.70;;;7.80;99.90;;;;;;5013010;28;20654;-67
2022/02/11 11:38:44;;;;;;;9.67;7.10;;;7.90;99.90;;;;;;5014696;28;20543;-67
2022/02/11 11:41:18;;;;;;;15.47;7.70;;;7.90;99.90;;;;;;5014239;28;20188;-67
2022/02/11 11:43:53;;;;;;;8.57;7.60;;;7.90;99.90;;;;;;5014653;28;20665;-66
2022/02/11 11:46:20;;;;;;;15.30;7.67;;;7.70;99.90;;;;;;5013356;28;20176;-67
2022/02/11 11:48:59;;;;;;;8.43;7.67;;;7.60;99.90;;;;;;5014505;28;20172;-67
2022/02/11 11:51:26;;;;;;;9.23;6.53;;;7.70;99.90;;;;;;5015023;28;20737;-67
2022/02/11 11:54:18;;;;;;;6.60;6.17;;;8.20;99.90;;;;;;5013456;28;20234;-67
2022/02/11 11:56:53;;;;;;;8.50;6.50;;;8.20;99.90;;;;;;5014890;28;20177;-67
2022/02/11 11:59:45;;;;;;;15.57;7.33;;;8.00;99.90;;;;;;5013001;28;20261;-67
2022/02/11 12:02:19;;;;;;;11.70;7.10;;;7.70;99.90;;;;;;5013498;28;20282;-67
2022/02/11 12:04:44;;;;;;;8.47;7.10;;;7.70;99.90;;;;;;5013854;28;20203;-68
2022/02/11 12:07:16;;;;;;;8.97;6.63;;;7.40;99.90;;;;;;5014200;28;20203;-67
2022/02/11 12:09:45;;;;;;;10.57;6.90;;;7.40;99.90;;;;;;5014286;28;20251;-67
2022/02/11 12:12:12;;;;;;;10.53;7.27;;;7.70;99.90;;;;;;5013944;28;20196;-68
2022/02/11 12:14:40;;;;;;;7.33;6.40;;;8.00;99.90;;;;;;5012708;28;20230;-67
2022/02/11 12:17:10;;;;;;;11.23;7.07;;;8.60;99.90;;;;;;5013975;28;20183;-67
2022/02/11 12:19:37;;;;;;;7.97;7.17;;;9.10;99.90;;;;;;5022350;28;20180;-67
2022/02/11 12:22:07;;;;;;;7.13;6.43;;;9.50;99.90;;;;;;5013680;28;20204;-68
2022/02/11 12:27:33;;;;;;;7.20;6.53;;;9.40;99.90;;;;;;5014443;28;20175;-67
2022/02/11 12:30:01;;;;;;;7.60;6.00;;;9.20;99.90;;;;;;5012868;28;20175;-67
2022/02/11 12:32:47;;;;;;;10.97;6.53;;;9.00;99.90;;;;;;5013616;28;20279;-67
2022/02/11 12:35:24;;;;;;;9.93;6.33;;;8.60;99.90;;;;;;5013733;28;20184;-67
2022/02/11 12:37:51;;;;;;;7.03;6.33;;;8.30;99.90;;;;;;5014148;28;20175;-67
2022/02/11 12:40:22;;;;;;;7.70;7.07;;;8.00;99.90;;;;;;5012089;28;20188;-67
2022/02/11 12:42:49;;;;;;;7.10;6.40;;;7.80;99.90;;;;;;5012914;28;20172;-67
2022/02/11 12:45:21;;;;;;;7.80;6.20;;;8.20;99.90;;;;;;5013304;28;20283;-67
2022/02/11 12:47:46;;;;;;;12.63;6.70;;;8.70;99.90;;;;;;5012568;28;20172;-67
2022/02/11 12:50:13;;;;;;;8.67;5.47;;;8.90;99.90;;;;;;5012195;28;20255;-70
2022/02/11 12:52:39;;;;;;;12.00;6.50;;;9.10;99.90;;;;;;5032510;28;20176;-67
2022/02/11 12:55:16;;;;;;;6.67;6.00;;;9.10;99.90;;;;;;5022764;28;20180;-68
2022/02/11 12:57:44;;;;;;;8.93;6.80;;;9.40;99.90;;;;;;5013633;28;20247;-67
2022/02/11 13:00:15;;;;;;;6.90;6.17;;;9.60;99.90;;;;;;5012737;28;20195;-67
2022/02/11 13:02:42;;;;;;;9.23;6.47;;;9.90;99.90;;;;;;5011715;28;20176;-67
2022/02/11 13:05:20;;;;;;;7.83;5.77;;;10.40;99.90;;;;;;5011356;28;20204;-67
2022/02/11 13:07:48;;;;;;;7.70;5.50;;;10.80;99.90;;;;;;5012072;28;20255;-67
2022/02/11 13:10:23;;;;;;;5.40;4.90;;;10.80;99.90;;;;;;5012996;28;20665;-69
2022/02/11 13:12:54;;;;;;;9.83;6.70;;;11.00;99.90;;;;;;5013130;28;20156;-67
2022/02/11 13:15:23;;;;;;;7.97;5.63;;;11.20;99.90;;;;;;5012239;28;20275;-67
2022/02/11 13:17:48;;;;;;;9.30;6.00;;;10.70;99.90;;;;;;5011408;28;20223;-69
2022/02/11 13:20:18;;;;;;;14.40;6.43;;;10.60;99.90;;;;;;5012855;28;20798;-68
2022/02/11 13:22:46;;;;;;;6.83;5.87;;;10.40;99.90;;;;;;5012198;28;20237;-68
2022/02/11 13:25:13;;;;;;;8.77;6.00;;;10.60;99.90;;;;;;5032585;28;20207;-68
2022/02/11 13:27:53;;;;;;;9.13;6.30;;;10.90;99.90;;;;;;5029268;28;20791;-69
2022/02/11 13:30:28;;;;;;;8.33;6.00;;;11.40;99.90;;;;;;5012908;28;20176;-69
2022/02/11 13:32:55;;;;;;;10.43;6.37;;;11.30;99.90;;;;;;5012490;28;20262;-68
2022/02/11 13:35:21;;;;;;;13.17;6.00;;;11.10;99.90;;;;;;5012980;28;20870;-69
2022/02/11 13:37:51;;;;;;;12.40;5.97;;;10.70;99.90;;;;;;5012537;28;20645;-68
2022/02/11 13:40:23;;;;;;;8.23;5.73;;;10.20;99.90;;;;;;5011393;28;20179;-67
2022/02/11 13:43:04;;;;;;;6.70;6.03;;;9.70;99.90;;;;;;5010425;28;20176;-67
2022/02/11 13:45:58;;;;;;;7.37;5.80;;;9.10;99.90;;;;;;5012355;28;20199;-67
2022/02/11 13:48:25;;;;;;;10.13;6.07;;;8.70;99.90;;;;;;5012458;28;20258;-67
2022/02/11 13:51:05;;;;;;;8.23;7.43;;;8.20;99.90;;;;;;4993000;28;20284;-68
2022/02/11 13:53:41;;;;;;;11.63;7.10;;;7.80;99.90;;;;;;4992533;28;20656;-67
2022/02/11 13:56:17;;;;;;;7.20;6.50;;;7.40;99.90;;;;;;4992199;28;20215;-67
2022/02/11 13:59:10;;;;;;;10.33;6.93;;;7.20;99.90;;;;;;4991929;28;20602;-67
2022/02/11 14:01:46;;;;;;;10.73;6.80;;;7.10;99.90;;;;;;4992139;28;20207;-67
2022/02/11 14:04:19;;;;;;;6.83;6.30;;;7.30;99.90;;;;;;4992319;28;20291;-67
2022/02/11 14:06:51;;;;;;;7.37;6.73;;;7.60;99.90;;;;;;4992562;28;20169;-67
2022/02/11 14:09:35;;;;;;;6.57;5.97;;;7.90;99.90;;;;;;4994681;28;20172;-67
2022/02/11 14:12:01;;;;;;;9.67;6.07;;;8.30;99.90;;;;;;5011365;28;20196;-67
2022/02/11 14:14:29;;;;;;;6.27;5.73;;;8.70;99.90;;;;;;5012375;28;20176;-67
2022/02/11 14:16:58;;;;;;;6.10;5.50;;;9.10;99.90;;;;;;5012125;28;20210;-67
2022/02/11 14:19:24;;;;;;;7.57;5.57;;;9.00;99.90;;;;;;5012127;28;20598;-67
2022/02/11 14:21:58;;;;;;;6.67;6.17;;;8.50;99.90;;;;;;5010526;28;20199;-67
2022/02/11 14:24:25;;;;;;;7.13;6.43;;;8.40;99.90;;;;;;5011193;28;20635;-68
2022/02/11 14:26:52;;;;;;;6.27;5.77;;;8.40;99.90;;;;;;5010885;28;20263;-67
2022/02/11 14:29:18;;;;;;;6.43;5.93;;;8.90;99.90;;;;;;4992034;28;20231;-67
2022/02/11 14:31:46;;;;;;;6.37;5.83;;;9.20;99.90;;;;;;4992351;28;20203;-67
2022/02/11 14:34:13;;;;;;;6.17;5.73;;;9.30;99.90;;;;;;5009362;28;20253;-67
2022/02/11 14:36:39;;;;;;;7.53;6.00;;;9.30;99.90;;;;;;5010794;28;20275;-67
2022/02/11 14:39:06;;;;;;;6.50;5.90;;;9.10;99.90;;;;;;5010316;28;20180;-67
2022/02/11 14:41:47;;;;;;;6.40;5.80;;;9.10;99.90;;;;;;5011392;28;20210;-67
2022/02/11 14:44:26;;;;;;;8.37;5.70;;;9.00;99.90;;;;;;5009825;28;20233;-67
2022/02/11 14:46:58;;;;;;;6.97;5.80;;;8.80;99.90;;;;;;5009955;28;20210;-68
2022/02/11 14:49:25;;;;;;;9.70;6.03;;;8.90;99.90;;;;;;5010895;28;20180;-67
2022/02/11 14:51:55;;;;;;;6.10;5.70;;;9.00;99.90;;;;;;5010133;28;20253;-67
2022/02/11 14:54:21;;;;;;;10.53;6.87;;;9.20;99.90;;;;;;5010897;28;20230;-67
2022/02/11 14:56:54;;;;;;;6.70;6.10;;;9.30;99.90;;;;;;5011067;28;20168;-67
2022/02/11 14:59:19;;;;;;;6.90;6.17;;;9.40;99.90;;;;;;4991932;28;20180;-67
2022/02/11 15:01:47;;;;;;;6.63;6.00;;;9.20;99.90;;;;;;5008773;28;20223;-67
2022/02/11 15:04:13;;;;;;;6.70;6.20;;;8.90;99.90;;;;;;5010388;28;20563;-67
2022/02/11 15:06:40;;;;;;;6.97;6.30;;;8.70;99.90;;;;;;5010436;28;20219;-68
2022/02/11 15:09:07;;;;;;;7.07;6.37;;;8.50;99.90;;;;;;5011001;28;20223;-68
2022/02/11 15:11:34;;;;;;;7.77;7.03;;;8.30;99.90;;;;;;5010973;28;20674;-68
2022/02/11 15:13:59;;;;;;;9.43;7.10;;;8.10;99.90;;;;;;5008497;28;20186;-67
2022/02/11 15:16:25;;;;;;;8.07;6.90;;;8.10;99.90;;;;;;5010890;28;20613;-67
2022/02/11 15:18:51;;;;;;;9.60;7.40;;;8.10;99.90;;;;;;5010889;28;20645;-68
2022/02/11 15:21:19;;;;;;;9.73;7.10;;;8.20;99.90;;;;;;5010738;28;20301;-67
2022/02/11 15:23:46;;;;;;;7.30;6.60;;;8.30;99.90;;;;;;5009292;28;20713;-67
2022/02/11 15:26:14;;;;;;;7.33;6.60;;;8.40;99.90;;;;;;5009273;28;20637;-67
2022/02/11 15:28:40;;;;;;;7.67;6.97;;;8.20;99.90;;;;;;5011184;28;20177;-67
2022/02/11 15:31:11;;;;;;;7.03;6.43;;;7.80;99.90;;;;;;5010702;28;20204;-67
2022/02/11 15:33:39;;;;;;;7.03;6.33;;;7.40;99.90;;;;;;5010312;28;20185;-67
2022/02/11 15:36:06;;;;;;;10.40;6.73;;;7.20;99.90;;;;;;5010542;28;20184;-67
2022/02/11 15:38:31;;;;;;;8.63;7.77;;;7.00;99.90;;;;;;5010578;28;20642;-67
2022/02/11 15:40:57;;;;;;;6.63;6.03;;;7.00;99.90;;;;;;5009405;28;20200;-67
2022/02/11 15:43:23;;;;;;;7.00;6.17;;;7.00;99.90;;;;;;5010003;28;20203;-67
2022/02/11 15:45:49;;;;;;;7.30;6.63;;;6.90;99.90;;;;;;5010971;28;20677;-67
2022/02/11 15:48:14;;;;;;;7.13;6.47;;;6.80;99.90;;;;;;5009340;28;20188;-68
2022/02/11 15:50:41;;;;;;;7.07;6.40;;;6.60;99.90;;;;;;5013588;28;20688;-67
2022/02/11 15:53:12;;;;;;;9.50;6.23;;;6.50;99.90;;;;;;5012166;28;20187;-68
2022/02/11 15:55:38;;;;;;;7.73;6.43;;;6.40;99.90;;;;;;5011541;28;20642;-67
2022/02/11 15:58:03;;;;;;;6.90;6.43;;;6.30;99.90;;;;;;5013246;28;20231;-68
2022/02/11 16:00:29;;;;;;;9.27;6.40;;;6.20;99.90;;;;;;5001694;28;20382;-68
2022/02/11 16:02:55;;;;;;;7.60;6.20;;;6.10;99.90;;;;;;5008561;28;20191;-67
2022/02/11 16:05:21;;;;;;;9.87;7.03;;;6.00;99.90;;;;;;5013652;28;20208;-68
2022/02/11 16:07:47;;;;;;;9.10;6.70;;;6.00;99.90;;;;;;5013977;28;20184;-68
2022/02/11 16:10:12;;;;;;;10.70;6.90;;;5.90;99.90;;;;;;5013825;28;20184;-68
2022/02/11 16:12:38;;;;;;;9.77;8.13;;;5.80;99.90;;;;;;5013742;28;20217;-68
2022/02/11 16:15:04;;;;;;;7.50;6.80;;;5.80;99.90;;;;;;5013793;28;20192;-68
2022/02/11 16:17:32;;;;;;;6.83;6.40;;;5.80;99.90;;;;;;5014240;28;20263;-67
2022/02/11 16:19:58;;;;;;;7.00;6.50;;;5.70;99.90;;;;;;5011457;28;20179;-67
2022/02/11 16:22:26;;;;;;;8.67;6.47;;;5.70;99.90;;;;;;5011193;28;20192;-67
2022/02/11 16:24:52;;;;;;;7.17;6.57;;;5.70;99.90;;;;;;5012384;28;20295;-67
2022/02/11 16:27:18;;;;;;;8.60;7.33;;;5.70;99.90;;;;;;5011894;28;20180;-68
2022/02/11 16:29:45;;;;;;;10.73;7.17;;;5.70;99.90;;;;;;5013724;28;20724;-68
2022/02/11 16:32:11;;;;;;;7.10;6.50;;;5.80;99.90;;;;;;5010111;28;20204;-68
2022/02/11 16:34:36;;;;;;;7.53;6.93;;;5.80;99.90;;;;;;5013299;28;20243;-66
2022/02/11 16:37:02;;;;;;;8.57;7.93;;;5.80;99.90;;;;;;5012088;28;20184;-67
2022/02/11 16:39:28;;;;;;;7.87;7.27;;;5.80;99.90;;;;;;5013099;28;20215;-68
2022/02/11 16:41:54;;;;;;;9.23;6.83;;;5.80;99.90;;;;;;5013038;28;20554;-67
2022/02/11 16:44:19;;;;;;;8.70;7.10;;;5.80;99.90;;;;;;5013119;28;20242;-68
2022/02/11 16:46:46;;;;;;;7.30;6.80;;;5.80;99.90;;;;;;5013371;28;20190;-67
2022/02/11 16:49:18;;;;;;;8.10;7.50;;;5.80;99.90;;;;;;5013083;28;20192;-68
2022/02/11 16:51:45;;;;;;;8.40;7.50;;;5.70;99.90;;;;;;5013344;28;20200;-68
2022/02/11 16:54:11;;;;;;;8.53;7.33;;;5.60;99.90;;;;;;5011188;28;20467;-68
2022/02/11 16:56:37;;;;;;;10.87;7.73;;;5.60;99.90;;;;;;5013466;28;20192;-67